Longford, Ireland
Current Conditions -  °F | °C
As of 2:00 AM on Tuesday 25 Nov 2014 (Local Time) from EIME Reporting Station
Broken Clouds Broken Clouds  
Wind Chill: 45°   Ceiling: 1100
Heat Index: 45°   Visibility: 6mi
Dew Point: 45°   Wind: 2mph
Humidity: 100%   Direction: 210°SSW
Pressure: 30.24"   Gusts: NA
Location:  53.09°N, 7.62°W
Report Text: EIME 250200Z 21002KT 9999 FEW009 BKN011 BKN030 07/07 Q1024
Loading
Personal Weather Stations






























Interactive Weather Map New forecast layout! Learn more

10-Day Weather Forecast

Advertisements
Track Severe Weather on mobile